createdAt,value
2022-08-24T00:02:57.399Z,69.40
2022-08-24T00:07:00.218Z,68.30
2022-08-24T00:11:01.542Z,69.20
2022-08-24T00:15:05.099Z,70.50
2022-08-24T00:19:06.221Z,71.80
2022-08-24T00:23:07.348Z,74.00
2022-08-24T00:27:08.970Z,75.40
2022-08-24T00:31:11.311Z,76.50
2022-08-24T00:35:13.427Z,77.30
2022-08-24T00:39:14.971Z,78.90
2022-08-24T00:43:22.662Z,78.50
2022-08-24T00:47:27.104Z,80.00
2022-08-24T00:51:35.171Z,81.50
2022-08-24T00:55:45.008Z,81.30
2022-08-24T00:59:50.045Z,82.00
2022-08-24T01:03:54.873Z,83.70
2022-08-24T01:07:54.606Z,84.80
2022-08-24T01:11:56.048Z,86.10
2022-08-24T01:16:00.522Z,85.50
2022-08-24T01:20:04.123Z,86.80
2022-08-24T01:24:09.206Z,85.50
2022-08-24T01:28:14.234Z,84.90
2022-08-24T01:32:17.963Z,85.50
2022-08-24T01:36:34.768Z,85.60
2022-08-24T01:40:45.670Z,86.50
2022-08-24T01:44:47.101Z,87.70
2022-08-24T01:48:48.363Z,86.50
2022-08-24T01:53:06.789Z,86.40
2022-08-24T01:56:54.899Z,88.80
2022-08-24T02:00:56.516Z,88.60
2022-08-24T02:04:57.948Z,88.60
2022-08-24T02:08:59.974Z,90.70
2022-08-24T02:13:02.265Z,91.30
2022-08-24T02:17:06.180Z,91.70
2022-08-24T02:21:08.613Z,92.10
2022-08-24T02:25:09.832Z,92.90
2022-08-24T02:29:12.836Z,93.20
2022-08-24T02:33:14.485Z,94.00
2022-08-24T02:37:15.697Z,95.40
2022-08-24T02:41:17.432Z,96.80
2022-08-24T02:45:19.585Z,98.10
2022-08-24T02:49:22.419Z,98.50
2022-08-24T02:53:23.842Z,99.20
2022-08-24T02:57:24.981Z,99.50
2022-08-24T03:01:30.639Z,99.80
2022-08-24T03:05:30.609Z,99.60
2022-08-24T03:09:31.852Z,98.80
2022-08-24T03:13:34.167Z,98.60
2022-08-24T03:17:35.594Z,99.40
2022-08-24T03:21:38.604Z,99.90
2022-08-24T03:25:39.844Z,99.80
2022-08-24T03:29:40.969Z,99.90
2022-08-24T03:33:42.108Z,99.90
2022-08-24T03:37:44.025Z,99.90
2022-08-24T03:41:45.256Z,99.90
2022-08-24T03:45:46.575Z,99.90
2022-08-24T03:49:48.487Z,99.90
2022-08-24T03:53:51.013Z,99.90
2022-08-24T03:57:52.648Z,99.90
2022-08-24T04:01:55.289Z,99.90
2022-08-24T04:05:56.535Z,99.90
2022-08-24T04:09:57.753Z,99.90
2022-08-24T04:13:58.932Z,99.90
2022-08-24T04:18:00.041Z,99.90
2022-08-24T04:22:01.151Z,99.90
2022-08-24T04:26:04.383Z,99.90
2022-08-24T04:30:06.759Z,99.90
2022-08-24T04:34:09.473Z,99.90
2022-08-24T04:38:10.846Z,99.90
2022-08-24T04:42:12.490Z,99.90
2022-08-24T04:46:16.227Z,99.90
2022-08-24T04:50:17.550Z,99.90
2022-08-24T04:54:19.679Z,99.90
2022-08-24T04:58:20.809Z,99.90
2022-08-24T05:02:22.068Z,99.90
2022-08-24T05:06:26.641Z,99.90
2022-08-24T05:10:33.530Z,99.90
2022-08-24T05:14:30.770Z,99.90
2022-08-24T05:18:32.891Z,99.90
2022-08-24T05:22:34.519Z,99.90
2022-08-24T05:26:37.231Z,99.90
2022-08-24T05:30:42.006Z,99.90
2022-08-24T05:34:41.381Z,99.90
2022-08-24T05:38:42.596Z,99.90
2022-08-24T05:42:44.238Z,99.90
2022-08-24T05:46:45.390Z,99.90
2022-08-24T05:50:57.047Z,99.90
2022-08-24T05:54:59.878Z,99.90
2022-08-24T05:59:01.596Z,99.90
2022-08-24T06:03:03.681Z,99.90
2022-08-24T06:07:08.587Z,99.90
2022-08-24T06:11:10.319Z,99.90
2022-08-24T06:15:12.553Z,99.90
2022-08-24T06:19:16.358Z,99.90
2022-08-24T06:23:17.631Z,99.90
2022-08-24T06:27:21.659Z,99.90
2022-08-24T06:31:26.766Z,99.90
2022-08-24T06:35:28.947Z,99.90
2022-08-24T06:39:31.211Z,99.90
2022-08-24T06:43:33.254Z,99.90
2022-08-24T06:47:34.636Z,99.90
2022-08-24T06:51:35.969Z,99.90
2022-08-24T06:55:37.511Z,99.90
2022-08-24T06:59:39.656Z,99.90
2022-08-24T07:03:41.184Z,99.90
2022-08-24T07:07:42.414Z,99.90
2022-08-24T07:11:43.630Z,99.90
2022-08-24T07:15:44.897Z,99.90
2022-08-24T07:19:46.533Z,99.90
2022-08-24T07:23:49.761Z,99.90
2022-08-24T07:27:50.984Z,99.90
2022-08-24T07:31:52.223Z,99.90
2022-08-24T07:35:56.163Z,99.90
2022-08-24T07:39:57.478Z,99.90
2022-08-24T07:43:59.320Z,99.40
2022-08-24T07:52:04.734Z,98.40
2022-08-24T07:56:06.966Z,96.40
2022-08-24T08:00:11.320Z,95.10
2022-08-24T08:04:13.531Z,92.30
2022-08-24T08:08:14.890Z,90.00
2022-08-24T08:12:16.443Z,85.30
2022-08-24T08:16:19.656Z,83.40
2022-08-24T08:20:21.376Z,84.30
2022-08-24T08:24:22.679Z,82.90
2022-08-24T08:28:33.349Z,84.10
2022-08-24T08:32:28.946Z,78.70
2022-08-24T08:36:31.147Z,76.30
2022-08-24T08:40:57.322Z,77.10
2022-08-24T08:45:20.651Z,75.60
2022-08-24T08:49:34.914Z,75.40
2022-08-24T08:53:48.759Z,75.40
2022-08-24T08:57:59.954Z,74.90
2022-08-24T09:02:37.069Z,73.80
2022-08-24T09:06:57.230Z,71.20
2022-08-24T09:11:08.350Z,69.70
2022-08-24T09:15:15.891Z,69.90
2022-08-24T09:19:20.919Z,67.20
2022-08-24T09:23:42.679Z,67.70
2022-08-24T09:28:11.623Z,65.70
2022-08-24T09:32:37.095Z,65.60
2022-08-24T09:36:47.250Z,60.80
2022-08-24T09:41:18.309Z,59.10
2022-08-24T09:45:35.237Z,58.50
2022-08-24T09:49:58.844Z,56.70
2022-08-24T09:54:26.265Z,54.80
2022-08-24T09:59:03.729Z,54.80
2022-08-24T10:03:14.930Z,52.50
2022-08-24T10:07:35.315Z,51.70
2022-08-24T10:11:46.358Z,51.40
2022-08-24T10:16:09.866Z,51.40
2022-08-24T10:20:17.909Z,50.10
2022-08-24T10:24:35.537Z,51.20
2022-08-24T10:28:46.315Z,49.60
2022-08-24T10:32:51.297Z,48.80
2022-08-24T10:37:02.441Z,48.20
2022-08-24T10:41:41.414Z,48.10
2022-08-24T10:46:02.278Z,45.50
2022-08-24T10:50:13.407Z,41.80
2022-08-24T10:54:17.244Z,44.00
2022-08-24T10:58:45.408Z,43.30
2022-08-24T11:02:47.586Z,44.20
2022-08-24T11:07:17.030Z,43.70
2022-08-24T11:11:40.498Z,43.80
2022-08-24T11:15:53.369Z,43.30
2022-08-24T11:19:56.545Z,44.50
2022-08-24T11:24:04.138Z,43.40
2022-08-24T11:28:10.296Z,45.00
2022-08-24T11:32:15.341Z,44.80
2022-08-24T11:36:20.978Z,44.60
2022-08-24T11:40:26.482Z,44.10
2022-08-24T11:44:55.762Z,44.10
2022-08-24T11:49:15.570Z,43.70
2022-08-24T11:57:49.462Z,43.70
2022-08-24T12:01:58.079Z,44.00
2022-08-24T12:06:08.880Z,43.80
2022-08-24T12:10:44.770Z,44.00
2022-08-24T12:15:14.540Z,43.80
2022-08-24T12:19:19.577Z,43.00
2022-08-24T12:23:28.402Z,42.80
2022-08-24T12:27:33.236Z,42.10
2022-08-24T12:31:41.576Z,42.70
2022-08-24T12:35:49.862Z,43.30
2022-08-24T12:40:00.662Z,43.40
2022-08-24T12:44:10.757Z,42.90
2022-08-24T12:48:25.111Z,43.00
2022-08-24T12:52:35.742Z,43.10
2022-08-24T12:56:43.892Z,43.80
2022-08-24T13:00:46.826Z,44.90
2022-08-24T13:04:52.390Z,43.80
2022-08-24T13:08:57.516Z,43.70
2022-08-24T13:13:07.555Z,44.40
2022-08-24T13:17:11.177Z,44.20
2022-08-24T13:21:19.125Z,43.90
2022-08-24T13:25:24.156Z,42.50
2022-08-24T13:29:28.781Z,42.40
2022-08-24T13:33:43.099Z,43.00
2022-08-24T13:37:48.055Z,43.00
2022-08-24T13:42:04.713Z,42.90
2022-08-24T13:46:15.814Z,42.40
2022-08-24T13:50:43.523Z,41.50
2022-08-24T13:55:05.434Z,41.20
2022-08-24T13:59:33.317Z,40.40
2022-08-24T14:03:59.190Z,40.30
2022-08-24T14:08:19.020Z,41.10
2022-08-24T14:12:33.702Z,41.80
2022-08-24T14:17:08.707Z,40.60
2022-08-24T14:21:18.777Z,40.70
2022-08-24T14:25:23.480Z,40.30
2022-08-24T14:29:27.826Z,39.40
2022-08-24T14:33:32.458Z,39.20
2022-08-24T14:37:54.723Z,39.70
2022-08-24T14:42:00.287Z,39.90
2022-08-24T14:46:20.683Z,40.10
2022-08-24T14:50:25.667Z,39.20
2022-08-24T14:54:40.018Z,38.40
2022-08-24T14:59:05.099Z,37.90
2022-08-24T15:03:22.261Z,38.00
2022-08-24T15:07:27.340Z,38.30
2022-08-24T15:11:28.857Z,38.20
2022-08-24T15:15:50.883Z,38.30
2022-08-24T15:20:17.607Z,38.50
2022-08-24T15:24:34.364Z,39.00
2022-08-24T15:28:35.905Z,38.90
2022-08-24T15:32:47.595Z,39.30
2022-08-24T15:37:00.936Z,39.40
2022-08-24T15:41:17.747Z,39.00
2022-08-24T15:45:20.326Z,39.50
2022-08-24T15:49:27.173Z,39.30
2022-08-24T15:53:39.928Z,39.40
2022-08-24T15:57:43.371Z,39.80
2022-08-24T16:02:06.812Z,39.00
2022-08-24T16:06:32.840Z,39.30
2022-08-24T16:10:47.090Z,40.00
2022-08-24T16:14:52.827Z,39.90
2022-08-24T16:18:59.916Z,40.40
2022-08-24T16:23:06.763Z,40.90
2022-08-24T16:27:13.984Z,41.10
2022-08-24T16:31:35.429Z,41.00
2022-08-24T16:35:36.850Z,41.30
2022-08-24T16:39:38.091Z,41.10
2022-08-24T16:43:41.123Z,41.30
2022-08-24T16:47:42.355Z,41.20
2022-08-24T16:51:45.391Z,41.60
2022-08-24T16:55:48.120Z,42.40
2022-08-24T16:59:51.242Z,43.50
2022-08-24T17:03:52.567Z,42.90
2022-08-24T17:07:54.088Z,43.10
2022-08-24T17:11:55.251Z,44.00
2022-08-24T17:15:57.975Z,43.00
2022-08-24T17:19:59.914Z,42.90
2022-08-24T17:24:01.117Z,42.90
2022-08-24T17:28:02.887Z,43.20
2022-08-24T17:32:04.507Z,43.30
2022-08-24T17:36:06.926Z,43.40
2022-08-24T17:40:13.290Z,43.60
2022-08-24T17:44:19.953Z,43.40
2022-08-24T17:48:25.110Z,43.20
2022-08-24T17:52:26.749Z,43.80
2022-08-24T17:56:31.592Z,43.70
2022-08-24T18:00:32.905Z,43.70
2022-08-24T18:04:36.202Z,43.80
2022-08-24T18:08:37.613Z,44.30
2022-08-24T18:12:38.891Z,45.50
2022-08-24T18:16:40.382Z,45.10
2022-08-24T18:20:41.753Z,45.40
2022-08-24T18:24:43.885Z,45.70
2022-08-24T18:28:45.104Z,45.80
2022-08-24T18:32:46.202Z,45.90
2022-08-24T18:36:48.242Z,46.20
2022-08-24T18:40:52.587Z,46.40
2022-08-24T18:44:53.797Z,47.00
2022-08-24T18:48:55.218Z,46.80
2022-08-24T18:52:59.716Z,47.20
2022-08-24T18:57:01.143Z,47.20
2022-08-24T19:01:06.088Z,47.60
2022-08-24T19:05:14.325Z,48.10
2022-08-24T19:09:15.932Z,48.10
2022-08-24T19:13:18.070Z,48.00
2022-08-24T19:17:19.183Z,47.70
2022-08-24T19:21:20.521Z,48.50
2022-08-24T19:25:27.234Z,48.70
2022-08-24T19:29:54.619Z,49.60
2022-08-24T19:33:36.141Z,50.70
2022-08-24T19:37:38.259Z,52.00
2022-08-24T19:41:43.279Z,51.60
2022-08-24T19:46:02.513Z,51.60
2022-08-24T19:50:07.593Z,52.20
2022-08-24T19:54:09.313Z,52.50
2022-08-24T19:58:29.439Z,52.70
2022-08-24T20:02:30.787Z,53.20
2022-08-24T20:06:34.178Z,53.00
2022-08-24T20:10:36.853Z,53.10
2022-08-24T20:14:38.183Z,53.50
2022-08-24T20:18:39.504Z,53.60
2022-08-24T20:22:40.857Z,53.80
2022-08-24T20:26:43.576Z,53.80
2022-08-24T20:30:44.705Z,53.60
2022-08-24T20:34:46.210Z,53.40
2022-08-24T20:38:47.739Z,52.30
2022-08-24T20:42:50.258Z,52.80
2022-08-24T20:46:51.918Z,53.00
2022-08-24T20:50:53.400Z,52.80
2022-08-24T20:54:54.534Z,53.20
2022-08-24T20:58:56.073Z,54.40
2022-08-24T21:02:57.647Z,54.20
2022-08-24T21:06:59.125Z,54.20
2022-08-24T21:11:00.362Z,54.50
2022-08-24T21:15:01.614Z,55.10
2022-08-24T21:19:02.935Z,55.80
2022-08-24T21:23:04.832Z,56.30
2022-08-24T21:27:06.097Z,57.10
2022-08-24T21:31:07.273Z,57.20
2022-08-24T21:35:08.580Z,57.50
2022-08-24T21:39:11.594Z,58.00
2022-08-24T21:43:17.790Z,58.40
2022-08-24T21:47:16.766Z,59.00
2022-08-24T21:51:17.978Z,59.20
2022-08-24T21:55:19.204Z,59.90
2022-08-24T21:59:20.427Z,60.60
2022-08-24T22:03:22.206Z,60.70
2022-08-24T22:07:24.268Z,60.80
2022-08-24T22:11:25.794Z,60.40
2022-08-24T22:15:26.900Z,60.70
2022-08-24T22:19:28.241Z,60.70
2022-08-24T22:23:29.564Z,60.70
2022-08-24T22:27:31.381Z,61.20
2022-08-24T22:31:36.481Z,61.70
2022-08-24T22:35:45.013Z,62.70
2022-08-24T22:39:45.487Z,63.40
2022-08-24T22:44:05.895Z,63.40
2022-08-24T22:48:07.130Z,64.50
2022-08-24T22:52:09.256Z,65.30
2022-08-24T22:56:19.590Z,66.90
2022-08-24T23:00:22.003Z,68.80
2022-08-24T23:04:27.177Z,70.30
2022-08-24T23:08:28.375Z,73.60
2022-08-24T23:12:29.731Z,80.20
2022-08-24T23:16:33.157Z,86.90
2022-08-24T23:20:34.811Z,90.80
2022-08-24T23:24:36.920Z,92.20
2022-08-24T23:28:38.648Z,92.90
2022-08-24T23:32:40.364Z,93.90
2022-08-24T23:36:42.489Z,95.10
2022-08-24T23:40:43.600Z,96.00
2022-08-24T23:44:45.455Z,97.50
2022-08-24T23:48:55.343Z,98.80
2022-08-24T23:52:50.091Z,99.60
2022-08-24T23:56:52.415Z,99.90
